createdAt,value
2022-09-14T00:00:46.343Z,31.30
2022-09-14T00:03:36.096Z,30.73
2022-09-14T00:06:25.137Z,30.33
2022-09-14T00:09:08.403Z,28.80
2022-09-14T00:11:57.112Z,29.48
2022-09-14T00:14:48.070Z,30.02
2022-09-14T00:17:36.414Z,29.30
2022-09-14T00:20:19.132Z,29.48
2022-09-14T00:23:01.859Z,32.22
2022-09-14T00:25:51.100Z,31.73
2022-09-14T00:28:37.987Z,29.98
2022-09-14T00:31:28.151Z,32.85
2022-09-14T00:34:22.129Z,31.88
2022-09-14T00:37:12.106Z,32.55
2022-09-14T00:40:01.589Z,32.53
2022-09-14T00:42:44.177Z,30.60
2022-09-14T00:45:34.142Z,30.90
2022-09-14T00:48:24.141Z,30.13
2022-09-14T00:51:13.159Z,30.63
2022-09-14T00:53:56.477Z,32.10
2022-09-14T00:56:45.153Z,32.17
2022-09-14T00:59:39.141Z,32.15
2022-09-14T01:02:31.201Z,32.85
2022-09-14T01:05:21.109Z,31.75
2022-09-14T01:08:10.015Z,32.60
2022-09-14T01:11:14.151Z,32.28
2022-09-14T01:14:16.103Z,32.95
2022-09-14T01:17:11.105Z,30.95
2022-09-14T01:19:58.597Z,32.13
2022-09-14T01:23:01.121Z,32.00
2022-09-14T01:26:05.099Z,32.00
2022-09-14T01:29:07.477Z,33.40
2022-09-14T01:32:31.095Z,35.40
2022-09-14T01:35:20.534Z,35.83
2022-09-14T01:38:09.105Z,35.05
2022-09-14T01:40:55.455Z,34.97
2022-09-14T01:44:05.144Z,36.08
2022-09-14T01:46:58.464Z,35.78
2022-09-14T01:49:53.837Z,38.25
2022-09-14T01:52:46.578Z,38.90
2022-09-14T01:56:09.015Z,39.05
2022-09-14T01:59:26.407Z,40.53
2022-09-14T02:02:46.149Z,39.58
2022-09-14T02:05:43.107Z,40.28
2022-09-14T02:08:29.795Z,40.80
2022-09-14T02:11:19.180Z,42.83
2022-09-14T02:14:15.199Z,46.33
2022-09-14T02:17:13.159Z,45.30
2022-09-14T02:20:01.308Z,46.95
2022-09-14T02:22:50.080Z,46.58
2022-09-14T02:25:42.304Z,47.78
2022-09-14T02:28:27.192Z,46.03
2022-09-14T02:31:27.640Z,47.15
2022-09-14T02:34:24.146Z,44.28
2022-09-14T02:37:23.503Z,45.60
2022-09-14T02:40:30.221Z,45.30
2022-09-14T02:43:30.304Z,44.50
2022-09-14T02:46:28.147Z,42.60
2022-09-14T02:49:49.075Z,40.70
2022-09-14T02:52:52.171Z,41.15
2022-09-14T02:55:39.665Z,41.07
2022-09-14T02:58:29.148Z,43.03
2022-09-14T03:01:21.227Z,42.17
2022-09-14T03:04:03.434Z,41.83
2022-09-14T03:06:52.146Z,42.60
2022-09-14T03:09:34.389Z,43.83
2022-09-14T03:12:23.081Z,42.50
2022-09-14T03:15:18.932Z,44.65
2022-09-14T03:18:15.119Z,42.35
2022-09-14T03:21:17.431Z,42.78
2022-09-14T03:24:03.147Z,44.17
2022-09-14T03:26:53.308Z,42.47
2022-09-14T03:29:36.119Z,42.75
2022-09-14T03:32:25.508Z,41.55
2022-09-14T03:35:08.140Z,41.53
2022-09-14T03:37:50.349Z,40.83
2022-09-14T03:40:39.119Z,42.55
2022-09-14T03:43:28.852Z,43.55
2022-09-14T03:46:27.589Z,39.80
2022-09-14T03:49:16.104Z,40.83
2022-09-14T03:51:59.873Z,41.42
2022-09-14T03:54:49.141Z,41.55
2022-09-14T03:57:31.503Z,42.53
2022-09-14T04:00:21.148Z,42.13
2022-09-14T04:03:04.343Z,42.10
2022-09-14T04:06:04.158Z,37.10
2022-09-14T04:08:53.049Z,32.88
2022-09-14T04:11:43.157Z,38.33
2022-09-14T04:14:32.962Z,39.92
2022-09-14T04:17:30.004Z,40.22
2022-09-14T04:20:29.080Z,40.47
2022-09-14T04:23:21.859Z,38.45
2022-09-14T04:26:04.407Z,32.78
2022-09-14T04:28:54.089Z,33.92
2022-09-14T04:31:36.513Z,37.60
2022-09-14T04:34:27.107Z,36.30
2022-09-14T04:37:13.948Z,34.67
2022-09-14T04:40:04.134Z,36.13
2022-09-14T04:42:46.483Z,36.13
2022-09-14T04:45:35.148Z,37.75
2022-09-14T04:48:17.722Z,35.13
2022-09-14T04:51:10.147Z,33.80
2022-09-14T04:53:59.871Z,30.65
2022-09-14T04:56:50.164Z,28.73
2022-09-14T04:59:35.734Z,28.92
2022-09-14T05:02:27.219Z,31.77
2022-09-14T05:05:16.187Z,29.77
2022-09-14T05:08:05.178Z,34.88
2022-09-14T05:10:48.181Z,33.97
2022-09-14T05:13:40.170Z,34.22
2022-09-14T05:16:25.586Z,34.25
2022-09-14T05:19:23.066Z,32.92
2022-09-14T05:22:14.697Z,32.92
2022-09-14T05:25:03.154Z,32.00
2022-09-14T05:27:47.983Z,34.47
2022-09-14T05:30:38.707Z,39.75
2022-09-14T05:36:25.547Z,45.92
2022-09-14T05:39:23.286Z,45.60
2022-09-14T05:42:06.500Z,49.08
2022-09-14T05:44:57.172Z,50.25
2022-09-14T05:48:04.807Z,50.40
2022-09-14T05:50:56.708Z,53.60
2022-09-14T05:53:49.216Z,54.90
2022-09-14T05:56:35.900Z,55.95
2022-09-14T05:59:29.064Z,55.05
2022-09-14T06:02:24.968Z,49.78
2022-09-14T06:05:09.753Z,53.22
2022-09-14T06:08:02.173Z,50.10
2022-09-14T06:10:44.549Z,53.95
2022-09-14T06:13:50.174Z,56.30
2022-09-14T06:16:44.536Z,54.90
2022-09-14T06:19:34.209Z,54.50
2022-09-14T06:22:16.483Z,52.10
2022-09-14T06:25:06.176Z,53.25
2022-09-14T06:27:51.509Z,55.00
2022-09-14T06:30:45.917Z,57.28
2022-09-14T06:33:31.220Z,56.83
2022-09-14T06:36:22.070Z,53.10
2022-09-14T06:39:09.563Z,51.42
2022-09-14T06:42:00.199Z,48.85
2022-09-14T06:44:47.243Z,47.42
2022-09-14T06:47:41.087Z,46.20
2022-09-14T06:50:26.589Z,48.20
2022-09-14T06:53:18.192Z,46.00
2022-09-14T06:56:01.619Z,47.03
2022-09-14T06:58:51.252Z,48.63
2022-09-14T07:01:34.661Z,48.17
2022-09-14T07:04:28.817Z,45.08
2022-09-14T07:07:11.534Z,45.58
2022-09-14T07:10:00.128Z,42.40
2022-09-14T07:12:42.420Z,43.10
2022-09-14T07:16:06.970Z,40.63
2022-09-14T07:18:57.544Z,40.13
2022-09-14T07:22:07.391Z,41.10
2022-09-14T07:25:03.261Z,40.00
2022-09-14T07:27:53.509Z,41.85
2022-09-14T07:30:45.727Z,42.25
2022-09-14T07:33:29.627Z,40.20
2022-09-14T07:36:24.442Z,36.53
2022-09-14T07:39:12.944Z,37.33
2022-09-14T07:42:08.956Z,38.58
2022-09-14T07:44:55.408Z,37.22
2022-09-14T07:47:47.479Z,34.10
2022-09-14T07:50:38.565Z,28.45
2022-09-14T07:53:29.083Z,31.40
2022-09-14T07:56:14.657Z,27.60
2022-09-14T07:59:30.783Z,26.65
2022-09-14T08:02:21.230Z,25.95
2022-09-14T08:05:04.369Z,25.95
2022-09-14T08:07:56.853Z,24.38
2022-09-14T08:10:39.431Z,23.52
2022-09-14T08:13:30.204Z,24.30
2022-09-14T08:16:23.290Z,24.02
2022-09-14T08:19:09.036Z,24.48
2022-09-14T08:22:00.732Z,24.55
2022-09-14T08:25:01.097Z,24.85
2022-09-14T08:27:53.085Z,26.38
2022-09-14T08:30:35.715Z,27.20
2022-09-14T08:33:25.518Z,26.10
2022-09-14T08:36:14.918Z,22.90
2022-09-14T08:39:03.507Z,22.20
2022-09-14T08:42:02.208Z,23.73
2022-09-14T08:45:14.383Z,22.60
2022-09-14T08:47:58.964Z,21.90
2022-09-14T08:50:44.215Z,21.92
2022-09-14T08:53:35.248Z,22.08
2022-09-14T08:56:33.187Z,23.20
2022-09-14T08:59:54.909Z,22.85
2022-09-14T09:03:38.887Z,22.27
2022-09-14T09:06:55.004Z,24.40
2022-09-14T09:10:00.518Z,22.20
2022-09-14T09:12:53.171Z,22.30
2022-09-14T09:16:03.255Z,22.55
2022-09-14T09:19:05.916Z,21.98
2022-09-14T09:21:50.556Z,22.50
2022-09-14T09:25:00.035Z,22.52
2022-09-14T09:27:42.557Z,24.00
2022-09-14T09:30:32.176Z,23.90
2022-09-14T09:33:27.301Z,23.75
2022-09-14T09:36:30.188Z,22.15
2022-09-14T09:39:13.385Z,23.30
2022-09-14T09:42:21.174Z,24.60
2022-09-14T09:45:07.041Z,24.05
2022-09-14T09:47:57.174Z,25.60
2022-09-14T09:50:51.309Z,25.80
2022-09-14T09:53:40.168Z,24.23
2022-09-14T09:56:36.550Z,23.98
2022-09-14T09:59:43.141Z,23.77
2022-09-14T10:02:40.558Z,24.15
2022-09-14T10:05:22.935Z,23.20
2022-09-14T10:08:23.087Z,24.10
2022-09-14T10:11:05.668Z,25.65
2022-09-14T10:13:56.218Z,23.80
2022-09-14T10:16:49.487Z,23.60
2022-09-14T10:19:40.170Z,24.85
2022-09-14T10:22:42.411Z,24.85
2022-09-14T10:25:41.673Z,23.88
2022-09-14T10:28:46.092Z,23.50
2022-09-14T10:31:32.990Z,23.27
2022-09-14T10:34:33.178Z,23.85
2022-09-14T10:37:37.132Z,23.63
2022-09-14T10:43:46.180Z,23.60
2022-09-14T10:47:19.095Z,24.13
2022-09-14T10:50:37.943Z,24.45
2022-09-14T10:53:42.190Z,25.55
2022-09-14T10:56:49.066Z,24.52
2022-09-14T10:59:40.165Z,24.63
2022-09-14T11:02:54.287Z,25.92
2022-09-14T11:08:45.170Z,26.88
2022-09-14T11:11:47.461Z,24.80
2022-09-14T11:14:49.193Z,24.73
2022-09-14T11:17:50.168Z,25.10
2022-09-14T11:21:09.520Z,24.33
2022-09-14T11:24:06.185Z,24.10
2022-09-14T11:27:09.946Z,25.88
2022-09-14T11:30:37.162Z,26.40
2022-09-14T11:33:56.502Z,28.60
2022-09-14T11:36:56.146Z,27.80
2022-09-14T11:39:51.140Z,28.65
2022-09-14T11:43:16.912Z,28.15
2022-09-14T11:46:14.113Z,26.77
2022-09-14T11:49:30.084Z,25.80
2022-09-14T11:52:21.959Z,27.58
2022-09-14T11:55:12.157Z,25.95
2022-09-14T11:58:05.198Z,25.90
2022-09-14T12:00:52.480Z,26.10
2022-09-14T12:04:25.163Z,24.73
2022-09-14T12:07:08.535Z,26.13
2022-09-14T12:09:59.156Z,26.75
2022-09-14T12:12:46.458Z,27.40
2022-09-14T12:15:37.241Z,27.70
2022-09-14T12:18:20.565Z,25.77
2022-09-14T12:21:26.143Z,26.48
2022-09-14T12:24:23.526Z,26.60
2022-09-14T12:27:29.191Z,26.05
2022-09-14T12:30:52.237Z,26.98
2022-09-14T12:33:34.412Z,26.25
2022-09-14T12:36:52.156Z,28.77
2022-09-14T12:39:37.784Z,25.70
2022-09-14T12:42:42.181Z,29.05
2022-09-14T12:45:51.247Z,26.20
2022-09-14T12:49:03.184Z,25.35
2022-09-14T12:51:59.184Z,26.67
2022-09-14T12:54:52.562Z,25.25
2022-09-14T12:58:11.173Z,25.27
2022-09-14T13:01:22.199Z,24.80
2022-09-14T13:04:20.217Z,24.88
2022-09-14T13:07:06.905Z,25.27
2022-09-14T13:09:54.517Z,24.75
2022-09-14T13:13:03.972Z,25.13
2022-09-14T13:16:12.111Z,23.98
2022-09-14T13:18:56.215Z,26.00
2022-09-14T13:21:58.466Z,25.27
2022-09-14T13:24:51.536Z,27.08
2022-09-14T13:27:46.082Z,26.48
2022-09-14T13:30:47.945Z,28.60
2022-09-14T13:33:34.581Z,30.98
2022-09-14T13:36:23.172Z,31.85
2022-09-14T13:39:33.069Z,34.60
2022-09-14T13:42:25.215Z,31.13
2022-09-14T13:45:30.011Z,29.90
2022-09-14T13:48:24.140Z,31.10
2022-09-14T13:51:10.599Z,31.60
2022-09-14T13:54:06.163Z,30.35
2022-09-14T13:56:55.171Z,31.80
2022-09-14T13:59:38.563Z,29.35
2022-09-14T14:02:31.181Z,29.58
2022-09-14T14:05:38.187Z,30.38
2022-09-14T14:08:55.671Z,28.85
2022-09-14T14:11:54.882Z,29.88
2022-09-14T14:14:46.095Z,29.70
2022-09-14T14:17:47.188Z,30.00
2022-09-14T14:20:47.164Z,28.27
2022-09-14T14:23:30.678Z,29.42
2022-09-14T14:26:49.707Z,30.88
2022-09-14T14:29:46.590Z,30.13
2022-09-14T14:32:36.173Z,28.60
2022-09-14T14:35:28.504Z,29.25
2022-09-14T14:38:20.169Z,29.30
2022-09-14T14:41:04.596Z,29.17
2022-09-14T14:43:59.715Z,29.65
2022-09-14T14:46:44.961Z,28.52
2022-09-14T14:49:34.214Z,28.35
2022-09-14T14:52:18.495Z,27.63
2022-09-14T14:55:07.069Z,29.83
2022-09-14T14:57:49.622Z,28.23
2022-09-14T15:00:46.122Z,29.05
2022-09-14T15:03:38.658Z,28.30
2022-09-14T15:06:34.035Z,30.05
2022-09-14T15:09:28.299Z,29.17
2022-09-14T15:12:18.153Z,28.63
2022-09-14T15:15:06.363Z,28.33
2022-09-14T15:17:56.952Z,30.67
2022-09-14T15:20:40.444Z,29.05
2022-09-14T15:23:30.427Z,29.10
2022-09-14T15:26:14.042Z,29.50
2022-09-14T15:29:10.184Z,29.85
2022-09-14T15:32:07.098Z,29.65
2022-09-14T15:34:58.235Z,28.02
2022-09-14T15:37:42.952Z,28.15
2022-09-14T15:40:28.789Z,29.35
2022-09-14T15:43:20.580Z,30.20
2022-09-14T15:46:12.252Z,29.92
2022-09-14T15:49:04.863Z,30.30
2022-09-14T15:52:00.069Z,29.70
2022-09-14T15:54:55.187Z,31.20
2022-09-14T15:57:45.154Z,31.33
2022-09-14T16:00:28.949Z,29.90
2022-09-14T16:03:24.812Z,29.42
2022-09-14T16:06:08.492Z,30.77
2022-09-14T16:08:58.180Z,30.10
2022-09-14T16:11:42.486Z,30.80
2022-09-14T16:14:33.072Z,30.10
2022-09-14T16:17:18.490Z,33.22
2022-09-14T16:20:09.058Z,31.23
2022-09-14T16:22:52.653Z,31.30
2022-09-14T16:25:50.178Z,30.65
2022-09-14T16:28:32.508Z,32.05
2022-09-14T16:31:34.124Z,31.98
2022-09-14T16:34:28.189Z,33.28
2022-09-14T16:37:23.822Z,34.30
2022-09-14T16:40:07.252Z,33.47
2022-09-14T16:42:56.160Z,33.58
2022-09-14T16:45:47.197Z,32.47
2022-09-14T16:48:32.432Z,35.30
2022-09-14T16:51:23.193Z,35.47
2022-09-14T16:54:08.142Z,35.97
2022-09-14T16:57:00.142Z,35.15
2022-09-14T16:59:42.616Z,33.53
2022-09-14T17:02:31.108Z,33.90
2022-09-14T17:05:13.552Z,32.53
2022-09-14T17:08:03.720Z,33.47
2022-09-14T17:10:53.176Z,32.50
2022-09-14T17:13:38.846Z,33.70
2022-09-14T17:16:35.258Z,33.20
2022-09-14T17:19:24.187Z,33.22
2022-09-14T17:22:15.654Z,33.40
2022-09-14T17:24:59.175Z,32.83
2022-09-14T17:27:47.481Z,31.50
2022-09-14T17:30:43.497Z,30.83
2022-09-14T17:33:36.845Z,31.63
2022-09-14T17:36:22.120Z,31.40
2022-09-14T17:39:18.636Z,31.75
2022-09-14T17:42:01.211Z,32.45
2022-09-14T17:44:44.749Z,31.98
2022-09-14T17:47:39.151Z,32.53
2022-09-14T17:50:22.192Z,32.47
2022-09-14T17:56:00.469Z,32.63
2022-09-14T17:58:44.100Z,32.42
2022-09-14T18:01:34.141Z,32.10
2022-09-14T18:04:19.605Z,30.75
2022-09-14T18:07:08.062Z,31.10
2022-09-14T18:09:50.669Z,30.73
2022-09-14T18:12:44.041Z,30.25
2022-09-14T18:15:38.195Z,25.83
2022-09-14T18:18:31.967Z,29.90
2022-09-14T18:21:23.147Z,30.83
2022-09-14T18:24:12.744Z,29.33
2022-09-14T18:26:58.092Z,29.73
2022-09-14T18:29:50.114Z,27.77
2022-09-14T18:32:45.131Z,28.08
2022-09-14T18:35:35.497Z,28.02
2022-09-14T18:38:21.104Z,27.00
2022-09-14T18:41:15.916Z,26.70
2022-09-14T18:44:00.923Z,26.38
2022-09-14T18:46:45.435Z,26.42
2022-09-14T18:49:35.159Z,25.75
2022-09-14T18:52:20.906Z,25.55
2022-09-14T18:55:13.645Z,26.33
2022-09-14T18:58:02.122Z,24.90
2022-09-14T19:00:54.265Z,25.63
2022-09-14T19:03:43.709Z,24.92
2022-09-14T19:06:27.109Z,26.55
2022-09-14T19:09:09.545Z,25.48
2022-09-14T19:11:58.129Z,25.38
2022-09-14T19:14:40.863Z,24.15
2022-09-14T19:17:30.550Z,24.08
2022-09-14T19:20:12.833Z,25.73
2022-09-14T19:23:04.188Z,24.55
2022-09-14T19:25:46.494Z,24.13
2022-09-14T19:28:35.015Z,24.98
2022-09-14T19:31:32.938Z,25.15
2022-09-14T19:34:28.068Z,25.25
2022-09-14T19:37:17.080Z,27.48
2022-09-14T19:40:06.064Z,25.83
2022-09-14T19:42:48.327Z,28.05
2022-09-14T19:45:37.034Z,26.60
2022-09-14T19:48:19.767Z,26.20
2022-09-14T19:54:03.401Z,26.15
2022-09-14T19:56:46.120Z,28.15
2022-09-14T19:59:35.516Z,26.13
2022-09-14T20:02:20.247Z,26.00
2022-09-14T20:05:02.559Z,27.88
2022-09-14T20:07:51.115Z,28.08
2022-09-14T20:10:40.151Z,27.88
2022-09-14T20:13:22.372Z,28.48
2022-09-14T20:16:25.697Z,27.10
2022-09-14T20:19:15.379Z,28.63
2022-09-14T20:22:01.823Z,28.52
2022-09-14T20:24:52.085Z,28.67
2022-09-14T20:27:34.391Z,28.60
2022-09-14T20:30:22.942Z,27.98
2022-09-14T20:33:17.924Z,28.10
2022-09-14T20:36:12.974Z,28.00
2022-09-14T20:38:58.505Z,29.85
2022-09-14T20:41:47.070Z,28.20
2022-09-14T20:44:36.994Z,26.98
2022-09-14T20:47:19.858Z,27.33
2022-09-14T20:50:08.998Z,27.88
2022-09-14T20:52:51.278Z,26.90
2022-09-14T20:55:40.030Z,27.27
2022-09-14T20:58:22.380Z,27.98
2022-09-14T21:01:32.014Z,27.50
2022-09-14T21:04:17.278Z,26.58
2022-09-14T21:07:08.997Z,25.85
2022-09-14T21:09:58.102Z,26.05
2022-09-14T21:12:40.344Z,24.08
2022-09-14T21:15:29.122Z,25.83
2022-09-14T21:18:11.362Z,22.73
2022-09-14T21:21:02.824Z,22.00
2022-09-14T21:23:45.459Z,20.98
2022-09-14T21:26:36.723Z,22.45
2022-09-14T21:29:34.039Z,22.15
2022-09-14T21:32:16.243Z,20.85
2022-09-14T21:35:12.049Z,20.77
2022-09-14T21:38:00.341Z,21.05
2022-09-14T21:40:44.968Z,21.17
2022-09-14T21:43:33.939Z,21.23
2022-09-14T21:46:17.392Z,20.20
2022-09-14T21:49:05.963Z,20.70
2022-09-14T21:51:48.594Z,22.30
2022-09-14T21:54:37.051Z,21.50
2022-09-14T21:57:19.385Z,21.67
2022-09-14T22:00:08.047Z,23.15
2022-09-14T22:02:50.380Z,21.65
2022-09-14T22:05:38.946Z,22.35
2022-09-14T22:08:27.935Z,21.55
2022-09-14T22:11:23.053Z,19.98
2022-09-14T22:14:20.962Z,19.10
2022-09-14T22:17:09.344Z,18.25
2022-09-14T22:19:52.049Z,18.63
2022-09-14T22:22:41.021Z,18.55
2022-09-14T22:25:26.048Z,18.38
2022-09-14T22:28:15.104Z,18.13
2022-09-14T22:31:02.463Z,17.73
2022-09-14T22:33:51.221Z,17.75
2022-09-14T22:36:48.054Z,18.17
2022-09-14T22:39:36.951Z,17.45
2022-09-14T22:42:26.021Z,17.73
2022-09-14T22:45:08.581Z,17.33
2022-09-14T22:47:57.039Z,17.88
2022-09-14T22:50:45.371Z,16.88
2022-09-14T22:53:29.040Z,16.42
2022-09-14T22:56:18.347Z,16.70
2022-09-14T22:59:00.950Z,16.45
2022-09-14T23:01:50.158Z,17.02
2022-09-14T23:04:32.873Z,15.98
2022-09-14T23:07:22.048Z,17.30
2022-09-14T23:10:10.959Z,16.73
2022-09-14T23:13:00.051Z,17.55
2022-09-14T23:15:47.241Z,15.82
2022-09-14T23:18:36.029Z,16.13
2022-09-14T23:21:26.017Z,15.73
2022-09-14T23:24:15.046Z,16.98
2022-09-14T23:26:57.372Z,16.00
2022-09-14T23:29:45.957Z,16.30
2022-09-14T23:32:34.946Z,16.38
2022-09-14T23:35:29.966Z,17.17
2022-09-14T23:38:12.229Z,16.70
2022-09-14T23:41:00.926Z,17.60
2022-09-14T23:43:43.734Z,17.20
2022-09-14T23:46:33.932Z,16.75
2022-09-14T23:49:24.017Z,16.42
2022-09-14T23:52:05.929Z,15.65
2022-09-14T23:54:54.436Z,15.00
2022-09-14T23:57:37.090Z,15.00
